Time;durP1;ratioP1;P1;durP2;ratioP2;P2;SDS_P1;SDS_P2;PMS_P1;PMS_P2;Temp;Humidity;BMP_temperature;BMP_pressure;BME280_temperature;BME280_humidity;BME280_pressure;Samples;Min_cycle;Max_cycle;Signal;HPM_P1;HPM_P2
2021/01/05 00:00:47;;;;;;;10.87;9.10;;;;;;;;;;5035365;28;20426;-60
2021/01/05 00:03:14;;;;;;;10.03;8.90;;;;;;;;;;5051704;28;20550;-60
2021/01/05 00:05:40;;;;;;;9.97;8.40;;;;;;;;;;5040373;28;20426;-61
2021/01/05 00:08:06;;;;;;;12.73;9.83;;;;;;;;;;5046326;28;20419;-61
2021/01/05 00:10:32;;;;;;;12.37;9.87;;;;;;;;;;5071062;28;20238;-60
2021/01/05 00:12:58;;;;;;;10.63;8.87;;;;;;;;;;5071163;28;20221;-60
2021/01/05 00:15:24;;;;;;;11.43;9.23;;;;;;;;;;5072476;28;20490;-60
2021/01/05 00:17:50;;;;;;;11.67;9.97;;;;;;;;;;5072100;28;20407;-61
2021/01/05 00:20:18;;;;;;;11.27;9.53;;;;;;;;;;5072014;28;20472;-60
2021/01/05 00:22:44;;;;;;;11.23;9.03;;;;;;;;;;5052944;28;20944;-61
2021/01/05 00:25:12;;;;;;;11.93;9.30;;;;;;;;;;5065044;28;20445;-60
2021/01/05 00:27:38;;;;;;;12.77;9.93;;;;;;;;;;5043780;28;20414;-60
2021/01/05 00:30:07;;;;;;;11.90;9.67;;;;;;;;;;5073270;28;20489;-61
2021/01/05 00:32:33;;;;;;;11.70;9.27;;;;;;;;;;5052384;28;20453;-60
2021/01/05 00:34:59;;;;;;;13.40;10.50;;;;;;;;;;5037712;28;20418;-60
2021/01/05 00:37:25;;;;;;;13.23;9.93;;;;;;;;;;5059927;28;20176;-61
2021/01/05 00:39:51;;;;;;;14.33;10.73;;;;;;;;;;5050066;28;20430;-61
2021/01/05 00:42:17;;;;;;;12.90;10.10;;;;;;;;;;5046288;28;20632;-60
2021/01/05 00:44:43;;;;;;;14.47;11.53;;;;;;;;;;5044805;28;20185;-60
2021/01/05 00:47:09;;;;;;;14.17;10.23;;;;;;;;;;5051732;28;20632;-60
2021/01/05 00:49:35;;;;;;;13.60;10.83;;;;;;;;;;5054085;28;20235;-61
2021/01/05 00:52:01;;;;;;;12.70;9.50;;;;;;;;;;5051807;28;20235;-60
2021/01/05 00:54:27;;;;;;;13.23;9.87;;;;;;;;;;5051306;28;20173;-60
2021/01/05 00:57:00;;;;;;;14.03;10.47;;;;;;;;;;5057997;28;20424;-60
2021/01/05 00:59:26;;;;;;;11.57;9.40;;;;;;;;;;5056437;28;20451;-61
2021/01/05 01:01:52;;;;;;;12.57;10.17;;;;;;;;;;5067553;28;20431;-61
2021/01/05 01:04:18;;;;;;;13.20;9.53;;;;;;;;;;5036952;28;20530;-60
2021/01/05 01:06:44;;;;;;;13.93;10.80;;;;;;;;;;5063150;28;20180;-60
2021/01/05 01:09:10;;;;;;;12.97;10.10;;;;;;;;;;5066520;28;20185;-61
2021/01/05 01:11:37;;;;;;;12.50;9.67;;;;;;;;;;5033858;28;20652;-60
2021/01/05 01:14:05;;;;;;;13.40;10.33;;;;;;;;;;5051664;28;20780;-60
2021/01/05 01:16:31;;;;;;;12.13;9.97;;;;;;;;;;5056098;28;20775;-61
2021/01/05 01:18:57;;;;;;;14.07;11.13;;;;;;;;;;5033499;28;20423;-60
2021/01/05 01:21:23;;;;;;;13.50;10.70;;;;;;;;;;5065759;28;20435;-61
2021/01/05 01:23:50;;;;;;;14.57;11.17;;;;;;;;;;5066113;28;20177;-61
2021/01/05 01:26:16;;;;;;;13.07;10.43;;;;;;;;;;5038485;28;20477;-61
2021/01/05 01:28:50;;;;;;;11.90;9.77;;;;;;;;;;5060461;28;20426;-62
2021/01/05 01:31:16;;;;;;;13.60;10.57;;;;;;;;;;5050445;28;20528;-60
2021/01/05 01:33:42;;;;;;;13.03;10.23;;;;;;;;;;5064062;28;20908;-61
2021/01/05 01:36:08;;;;;;;14.60;11.07;;;;;;;;;;5066492;28;20169;-61
2021/01/05 01:38:34;;;;;;;13.87;11.63;;;;;;;;;;5070071;28;20482;-59
2021/01/05 01:41:00;;;;;;;13.47;10.33;;;;;;;;;;5055903;28;20431;-61
2021/01/05 01:43:26;;;;;;;14.77;11.27;;;;;;;;;;5055329;28;20919;-61
2021/01/05 01:45:53;;;;;;;13.13;10.27;;;;;;;;;;5051116;28;20192;-60
2021/01/05 01:48:19;;;;;;;14.57;11.23;;;;;;;;;;5032086;28;20426;-60
2021/01/05 01:50:45;;;;;;;11.57;10.23;;;;;;;;;;5034248;28;20459;-60
2021/01/05 01:53:23;;;;;;;13.77;10.83;;;;;;;;;;5053664;28;20177;-60
2021/01/05 01:56:21;;;;;;;14.40;11.40;;;;;;;;;;5050836;28;20216;-60
2021/01/05 01:58:50;;;;;;;13.43;10.90;;;;;;;;;;5006654;28;20412;-59
2021/01/05 02:01:22;;;;;;;14.73;11.07;;;;;;;;;;5050564;28;20434;-61
2021/01/05 02:04:15;;;;;;;12.27;9.87;;;;;;;;;;5048836;28;20463;-60
2021/01/05 02:07:00;;;;;;;12.90;9.77;;;;;;;;;;5047044;28;20430;-60
2021/01/05 02:09:34;;;;;;;14.53;11.43;;;;;;;;;;5040087;28;20427;-60
2021/01/05 02:12:21;;;;;;;14.70;10.80;;;;;;;;;;5049629;28;20451;-61
2021/01/05 02:15:03;;;;;;;11.23;9.53;;;;;;;;;;5049738;28;20686;-61
2021/01/05 02:17:48;;;;;;;14.63;10.17;;;;;;;;;;5061369;28;20913;-60
2021/01/05 02:20:27;;;;;;;12.83;10.23;;;;;;;;;;5042246;28;20407;-60
2021/01/05 02:23:03;;;;;;;13.10;10.37;;;;;;;;;;5060988;28;20439;-60
2021/01/05 02:25:39;;;;;;;14.63;11.23;;;;;;;;;;5043992;28;20454;-60
2021/01/05 02:28:08;;;;;;;13.17;10.77;;;;;;;;;;5055809;28;20479;-60
2021/01/05 02:30:37;;;;;;;12.53;10.60;;;;;;;;;;5049388;28;20486;-60
2021/01/05 02:33:32;;;;;;;12.43;10.57;;;;;;;;;;5032098;28;20419;-61
2021/01/05 02:35:59;;;;;;;14.13;11.23;;;;;;;;;;5041025;28;20281;-60
2021/01/05 02:38:31;;;;;;;14.80;11.80;;;;;;;;;;5049314;28;20412;-60
2021/01/05 02:41:12;;;;;;;14.93;12.43;;;;;;;;;;5050483;28;20434;-61
2021/01/05 02:43:47;;;;;;;15.93;11.20;;;;;;;;;;5044515;28;20945;-60
2021/01/05 02:46:16;;;;;;;14.47;11.43;;;;;;;;;;5053815;28;20415;-61
2021/01/05 02:48:43;;;;;;;13.83;11.10;;;;;;;;;;5031845;28;20451;-60
2021/01/05 02:51:28;;;;;;;16.63;12.57;;;;;;;;;;5031411;28;20831;-61
2021/01/05 02:54:10;;;;;;;15.83;12.10;;;;;;;;;;5048474;28;20921;-60
2021/01/05 02:56:46;;;;;;;15.90;12.93;;;;;;;;;;5051895;28;20424;-62
2021/01/05 02:59:27;;;;;;;15.40;12.00;;;;;;;;;;5048895;28;20497;-61
2021/01/05 03:02:17;;;;;;;17.73;12.87;;;;;;;;;;5048918;28;20407;-61
2021/01/05 03:04:43;;;;;;;15.73;12.03;;;;;;;;;;5033690;28;20475;-60
2021/01/05 03:07:17;;;;;;;15.37;12.13;;;;;;;;;;5036112;28;20531;-62
2021/01/05 03:09:50;;;;;;;16.07;13.10;;;;;;;;;;5031318;28;20768;-60
2021/01/05 03:12:19;;;;;;;17.77;13.33;;;;;;;;;;5048885;28;20428;-62
2021/01/05 03:14:53;;;;;;;16.00;12.00;;;;;;;;;;5050115;28;20792;-61
2021/01/05 03:17:31;;;;;;;14.63;11.57;;;;;;;;;;5064944;28;20419;-60
2021/01/05 03:20:16;;;;;;;17.50;12.73;;;;;;;;;;5055444;28;20897;-60
2021/01/05 03:22:54;;;;;;;16.53;12.03;;;;;;;;;;5037378;28;20446;-60
2021/01/05 03:25:21;;;;;;;16.57;11.70;;;;;;;;;;5055426;28;20460;-60
2021/01/05 03:27:48;;;;;;;16.20;12.13;;;;;;;;;;5045639;28;20408;-61
2021/01/05 03:30:21;;;;;;;16.23;12.50;;;;;;;;;;5051079;28;20462;-60
2021/01/05 03:32:47;;;;;;;15.63;11.77;;;;;;;;;;5060571;28;20430;-61
2021/01/05 03:35:13;;;;;;;17.10;12.70;;;;;;;;;;5048401;28;20820;-61
2021/01/05 03:37:39;;;;;;;17.33;12.87;;;;;;;;;;5067916;28;20427;-60
2021/01/05 03:40:09;;;;;;;16.00;11.97;;;;;;;;;;5037847;28;20501;-60
2021/01/05 03:42:35;;;;;;;13.97;11.37;;;;;;;;;;5070144;28;20423;-60
2021/01/05 03:45:02;;;;;;;16.70;12.03;;;;;;;;;;5054658;28;20887;-62
2021/01/05 03:47:28;;;;;;;12.90;10.67;;;;;;;;;;5035593;28;20473;-61
2021/01/05 03:49:54;;;;;;;14.70;11.20;;;;;;;;;;5035576;28;20806;-60
2021/01/05 03:52:23;;;;;;;14.40;10.90;;;;;;;;;;5033920;28;20570;-61
2021/01/05 03:54:50;;;;;;;12.97;10.23;;;;;;;;;;5034078;28;20427;-60
2021/01/05 03:57:16;;;;;;;14.20;11.37;;;;;;;;;;5052029;28;20408;-60
2021/01/05 03:59:43;;;;;;;14.77;11.73;;;;;;;;;;5034686;28;20430;-60
2021/01/05 04:02:09;;;;;;;15.47;11.90;;;;;;;;;;5034022;28;20459;-61
2021/01/05 04:04:35;;;;;;;15.93;12.33;;;;;;;;;;5034514;28;20424;-60
2021/01/05 04:07:02;;;;;;;16.77;11.87;;;;;;;;;;5066545;28;20922;-60
2021/01/05 04:09:28;;;;;;;15.30;11.00;;;;;;;;;;5053761;28;20763;-60
2021/01/05 04:11:54;;;;;;;16.17;11.60;;;;;;;;;;5053660;28;20471;-60
2021/01/05 04:14:20;;;;;;;14.63;11.67;;;;;;;;;;5034620;28;20438;-60
2021/01/05 04:16:47;;;;;;;18.90;12.10;;;;;;;;;;5051974;28;20929;-60
2021/01/05 04:19:14;;;;;;;18.07;13.10;;;;;;;;;;5043801;28;20416;-61
2021/01/05 04:21:40;;;;;;;14.50;11.40;;;;;;;;;;5052450;28;20459;-60
2021/01/05 04:24:06;;;;;;;18.23;12.77;;;;;;;;;;5057545;28;20443;-60
2021/01/05 04:26:36;;;;;;;13.87;11.10;;;;;;;;;;5051807;28;20812;-60
2021/01/05 04:29:02;;;;;;;17.00;12.43;;;;;;;;;;5033683;28;21234;-60
2021/01/05 04:31:28;;;;;;;16.47;11.63;;;;;;;;;;5053557;28;20466;-60
2021/01/05 04:33:54;;;;;;;14.77;11.63;;;;;;;;;;5039878;28;20930;-61
2021/01/05 04:36:21;;;;;;;18.00;12.40;;;;;;;;;;5058211;28;20419;-60
2021/01/05 04:38:47;;;;;;;19.40;12.47;;;;;;;;;;5059899;28;20428;-60
2021/01/05 04:41:17;;;;;;;18.37;12.63;;;;;;;;;;5058844;28;20442;-60
2021/01/05 04:43:51;;;;;;;16.73;12.90;;;;;;;;;;5051290;28;20785;-60
2021/01/05 04:46:17;;;;;;;17.57;12.10;;;;;;;;;;5051736;28;20402;-60
2021/01/05 04:49:02;;;;;;;14.27;11.23;;;;;;;;;;5037878;28;20824;-60
2021/01/05 04:51:41;;;;;;;16.73;12.40;;;;;;;;;;5053301;28;20464;-60
2021/01/05 04:54:16;;;;;;;17.47;12.07;;;;;;;;;;5035025;28;20918;-60
2021/01/05 04:56:51;;;;;;;16.40;12.17;;;;;;;;;;5059849;28;20430;-61
2021/01/05 04:59:17;;;;;;;15.20;12.23;;;;;;;;;;5036956;28;20429;-60
2021/01/05 05:01:47;;;;;;;16.67;12.07;;;;;;;;;;5051191;28;20991;-60
2021/01/05 05:04:28;;;;;;;18.17;13.47;;;;;;;;;;5011564;28;20445;-61
2021/01/05 05:07:14;;;;;;;14.57;11.33;;;;;;;;;;5020991;28;20442;-60
2021/01/05 05:10:00;;;;;;;16.63;11.97;;;;;;;;;;5018614;28;20503;-60
2021/01/05 05:12:32;;;;;;;16.17;12.20;;;;;;;;;;5010863;28;20988;-60
2021/01/05 05:14:58;;;;;;;16.67;12.17;;;;;;;;;;5028653;28;20417;-61
2021/01/05 05:17:43;;;;;;;16.43;12.30;;;;;;;;;;5015373;28;20409;-60
2021/01/05 05:20:09;;;;;;;18.27;12.40;;;;;;;;;;5011335;28;21023;-61
2021/01/05 05:22:43;;;;;;;16.83;12.17;;;;;;;;;;5013599;28;20745;-61
2021/01/05 05:25:17;;;;;;;16.40;12.43;;;;;;;;;;5014791;28;20836;-59
2021/01/05 05:27:51;;;;;;;17.57;12.93;;;;;;;;;;5009523;28;20429;-61
2021/01/05 05:30:27;;;;;;;14.27;11.47;;;;;;;;;;5011546;28;20469;-60
2021/01/05 05:32:55;;;;;;;16.97;11.97;;;;;;;;;;5019181;28;20645;-60
2021/01/05 05:35:40;;;;;;;18.47;13.77;;;;;;;;;;5017305;28;20465;-60
2021/01/05 05:38:26;;;;;;;17.87;12.53;;;;;;;;;;5022093;28;20412;-61
2021/01/05 05:40:58;;;;;;;17.67;12.60;;;;;;;;;;4991133;28;20437;-61
2021/01/05 05:43:39;;;;;;;20.20;13.20;;;;;;;;;;5011230;28;20422;-60
2021/01/05 05:46:08;;;;;;;17.27;12.57;;;;;;;;;;5024227;28;20465;-60
2021/01/05 05:48:40;;;;;;;15.37;10.57;;;;;;;;;;5010952;28;20786;-60
2021/01/05 05:51:25;;;;;;;16.17;11.80;;;;;;;;;;5022665;28;20577;-60
2021/01/05 05:53:55;;;;;;;14.03;10.93;;;;;;;;;;5024462;28;20456;-60
2021/01/05 05:56:28;;;;;;;15.40;11.57;;;;;;;;;;5017196;28;20913;-60
2021/01/05 05:58:56;;;;;;;15.33;10.77;;;;;;;;;;5011195;28;20413;-60
2021/01/05 06:01:30;;;;;;;16.27;12.27;;;;;;;;;;5018497;28;20432;-61
2021/01/05 06:03:58;;;;;;;15.90;11.37;;;;;;;;;;5031755;28;20529;-61
2021/01/05 06:06:28;;;;;;;15.30;11.53;;;;;;;;;;5038521;28;20456;-61
2021/01/05 06:08:57;;;;;;;15.70;11.87;;;;;;;;;;5028028;28;20945;-60
2021/01/05 06:11:23;;;;;;;16.57;12.53;;;;;;;;;;5029925;28;20479;-60
2021/01/05 06:13:50;;;;;;;17.27;11.57;;;;;;;;;;5029866;28;20466;-60
2021/01/05 06:16:16;;;;;;;16.33;12.00;;;;;;;;;;5034389;28;20416;-60
2021/01/05 06:18:42;;;;;;;15.67;11.37;;;;;;;;;;5036283;28;20424;-60
2021/01/05 06:21:08;;;;;;;15.67;11.73;;;;;;;;;;5029495;28;20499;-60
2021/01/05 06:23:34;;;;;;;15.23;11.40;;;;;;;;;;5031225;28;20927;-61
2021/01/05 06:26:01;;;;;;;13.37;10.70;;;;;;;;;;5042168;28;20507;-60
2021/01/05 06:28:27;;;;;;;15.80;11.37;;;;;;;;;;5036381;28;20511;-60
2021/01/05 06:30:53;;;;;;;14.97;11.00;;;;;;;;;;5048609;28;20487;-61
2021/01/05 06:33:19;;;;;;;16.03;10.63;;;;;;;;;;5041879;28;20432;-60
2021/01/05 06:35:45;;;;;;;15.27;10.87;;;;;;;;;;5030444;28;20417;-60
2021/01/05 06:38:12;;;;;;;14.57;10.90;;;;;;;;;;5024821;28;20433;-60
2021/01/05 06:40:38;;;;;;;15.90;11.43;;;;;;;;;;5034168;28;20892;-60
2021/01/05 06:43:07;;;;;;;13.73;10.67;;;;;;;;;;5038196;28;20456;-61
2021/01/05 06:45:34;;;;;;;13.97;10.57;;;;;;;;;;5035081;28;21151;-61
2021/01/05 06:48:00;;;;;;;15.00;11.07;;;;;;;;;;5030048;28;20428;-60
2021/01/05 06:50:28;;;;;;;16.73;11.13;;;;;;;;;;5042629;28;20466;-60
2021/01/05 06:52:54;;;;;;;17.10;11.63;;;;;;;;;;5037395;28;20481;-60
2021/01/05 06:55:20;;;;;;;11.90;9.77;;;;;;;;;;5038004;28;20455;-60
2021/01/05 06:57:47;;;;;;;15.40;11.60;;;;;;;;;;5044684;28;20459;-61
2021/01/05 07:00:18;;;;;;;18.48;13.85;;;;;;;;;;5030530;28;21236;-61
2021/01/05 07:02:47;;;;;;;20.70;11.90;;;;;;;;;;5028936;28;20308;-60
2021/01/05 07:05:13;;;;;;;18.37;11.83;;;;;;;;;;5031224;28;20424;-60
2021/01/05 07:07:40;;;;;;;23.10;11.83;;;;;;;;;;5041093;28;20888;-62
2021/01/05 07:10:07;;;;;;;18.27;11.03;;;;;;;;;;5037212;28;20423;-61
2021/01/05 07:12:36;;;;;;;22.93;11.63;;;;;;;;;;5040515;28;20424;-61
2021/01/05 07:15:03;;;;;;;17.30;10.43;;;;;;;;;;5030898;28;20415;-60
2021/01/05 07:17:30;;;;;;;16.37;10.10;;;;;;;;;;5032501;28;20803;-61
2021/01/05 07:19:56;;;;;;;18.27;11.47;;;;;;;;;;5032691;28;20423;-61
2021/01/05 07:22:22;;;;;;;254.03;44.93;;;;;;;;;;5037103;28;20420;-61
2021/01/05 07:24:48;;;;;;;121.10;29.50;;;;;;;;;;5033986;28;20818;-61
2021/01/05 07:27:14;;;;;;;32.43;21.77;;;;;;;;;;5039399;28;20436;-62
2021/01/05 07:29:40;;;;;;;23.67;14.23;;;;;;;;;;5034110;28;20427;-61
2021/01/05 07:32:06;;;;;;;23.17;13.20;;;;;;;;;;5037004;28;20821;-59
2021/01/05 07:34:37;;;;;;;17.57;11.87;;;;;;;;;;5046116;28;20407;-59
2021/01/05 07:37:04;;;;;;;15.57;10.60;;;;;;;;;;5049849;28;20505;-59
2021/01/05 07:39:31;;;;;;;18.53;11.37;;;;;;;;;;5039421;28;20523;-59
2021/01/05 07:42:35;;;;;;;21.43;12.47;;;;;;;;;;5031477;28;20432;-60
2021/01/05 07:45:04;;;;;;;17.20;12.10;;;;;;;;;;4990448;28;20424;-59
2021/01/05 07:47:35;;;;;;;23.43;12.80;;;;;;;;;;5046246;28;20435;-60
2021/01/05 07:50:01;;;;;;;22.60;12.20;;;;;;;;;;5033518;28;20478;-62
2021/01/05 07:52:41;;;;;;;18.70;12.53;;;;;;;;;;5033030;28;20551;-60
2021/01/05 07:55:08;;;;;;;18.77;12.67;;;;;;;;;;5044025;28;20420;-60
2021/01/05 07:57:35;;;;;;;19.50;12.90;;;;;;;;;;5046440;28;20412;-60
2021/01/05 08:00:01;;;;;;;18.50;12.20;;;;;;;;;;5040010;28;20550;-61
2021/01/05 08:02:30;;;;;;;23.97;11.63;;;;;;;;;;5029842;28;20945;-59
2021/01/05 08:04:56;;;;;;;24.95;13.20;;;;;;;;;;5013873;28;20910;-61
2021/01/05 08:07:23;;;;;;;24.47;13.20;;;;;;;;;;5014673;28;20269;-61
2021/01/05 08:09:49;;;;;;;23.67;12.63;;;;;;;;;;5013495;28;20470;-63
2021/01/05 08:12:16;;;;;;;19.33;13.67;;;;;;;;;;5014395;28;20511;-63
2021/01/05 08:14:45;;;;;;;18.73;13.30;;;;;;;;;;5033450;28;20426;-60
2021/01/05 08:17:11;;;;;;;20.10;13.37;;;;;;;;;;5013086;28;20516;-60
2021/01/05 08:19:41;;;;;;;23.90;13.40;;;;;;;;;;5023294;28;20416;-60
2021/01/05 08:22:07;;;;;;;23.13;14.63;;;;;;;;;;5015107;28;21165;-59
2021/01/05 08:24:33;;;;;;;24.47;13.20;;;;;;;;;;5014984;28;20830;-60
2021/01/05 08:27:00;;;;;;;19.00;14.20;;;;;;;;;;5012357;28;20452;-59
2021/01/05 08:29:28;;;;;;;21.27;14.17;;;;;;;;;;5026943;28;20437;-60
2021/01/05 08:31:55;;;;;;;27.33;17.15;;;;;;;;;;5014808;28;20449;-60
2021/01/05 08:34:21;;;;;;;25.70;15.07;;;;;;;;;;5013858;28;20539;-59
2021/01/05 08:36:47;;;;;;;22.67;14.73;;;;;;;;;;5021795;28;20417;-59
2021/01/05 08:39:14;;;;;;;20.43;14.77;;;;;;;;;;5017253;28;20521;-59
2021/01/05 08:41:52;;;;;;;30.83;14.20;;;;;;;;;;5022145;28;20436;-58
2021/01/05 08:44:18;;;;;;;57.13;18.43;;;;;;;;;;5023093;28;20424;-59
2021/01/05 08:46:44;;;;;;;28.37;15.70;;;;;;;;;;5016909;28;20890;-59
2021/01/05 08:49:11;;;;;;;1999.90;592.60;;;;;;;;;;5019814;28;20436;-61
2021/01/05 08:51:37;;;;;;;803.20;105.10;;;;;;;;;;5015419;28;20519;-59
2021/01/05 08:54:04;;;;;;;261.70;43.37;;;;;;;;;;5034595;28;20962;-59
2021/01/05 08:56:30;;;;;;;129.10;29.67;;;;;;;;;;5018973;28;20425;-59
2021/01/05 08:58:59;;;;;;;42.80;17.20;;;;;;;;;;5021704;28;20448;-60
2021/01/05 09:01:25;;;;;;;93.13;25.27;;;;;;;;;;5020223;28;20434;-59
2021/01/05 09:03:52;;;;;;;50.23;17.83;;;;;;;;;;5055322;28;21235;-59
2021/01/05 09:06:25;;;;;;;38.03;15.80;;;;;;;;;;5066674;28;20436;-60
2021/01/05 09:08:51;;;;;;;22.67;15.20;;;;;;;;;;5039581;28;20957;-60
2021/01/05 09:11:19;;;;;;;22.47;14.00;;;;;;;;;;5052768;28;20545;-59
2021/01/05 09:13:45;;;;;;;24.43;15.27;;;;;;;;;;5054659;28;20423;-59
2021/01/05 09:16:18;;;;;;;23.33;14.67;;;;;;;;;;5064697;28;20427;-59
2021/01/05 09:18:44;;;;;;;22.30;13.47;;;;;;;;;;5055931;28;20891;-61
2021/01/05 09:21:10;;;;;;;24.33;15.80;;;;;;;;;;5039213;28;20822;-59
2021/01/05 09:23:39;;;;;;;22.47;14.60;;;;;;;;;;5041414;28;20423;-59
2021/01/05 09:26:08;;;;;;;22.77;14.97;;;;;;;;;;5027579;28;20939;-60
2021/01/05 09:28:35;;;;;;;24.33;14.53;;;;;;;;;;5053749;28;20556;-59
2021/01/05 09:31:01;;;;;;;30.40;15.07;;;;;;;;;;5049400;28;20550;-61
2021/01/05 09:33:27;;;;;;;27.20;15.63;;;;;;;;;;5055221;28;20429;-59
2021/01/05 09:35:53;;;;;;;20.97;14.43;;;;;;;;;;5059308;28;20758;-59
2021/01/05 09:38:20;;;;;;;26.77;14.87;;;;;;;;;;5066242;28;20435;-59
2021/01/05 09:40:46;;;;;;;44.80;15.03;;;;;;;;;;5035650;28;20434;-61
2021/01/05 09:43:13;;;;;;;33.30;16.00;;;;;;;;;;5039050;28;20436;-60
2021/01/05 09:45:39;;;;;;;36.87;15.87;;;;;;;;;;5042650;28;20553;-59
2021/01/05 09:48:16;;;;;;;36.87;15.17;;;;;;;;;;5040655;28;20430;-59
2021/01/05 09:50:43;;;;;;;31.67;16.23;;;;;;;;;;5051590;28;20497;-59
2021/01/05 09:53:10;;;;;;;25.30;14.33;;;;;;;;;;5031887;28;20428;-60
2021/01/05 09:55:39;;;;;;;29.20;15.60;;;;;;;;;;5042417;28;20435;-61
2021/01/05 09:58:05;;;;;;;27.77;14.70;;;;;;;;;;5053617;28;20906;-60
2021/01/05 10:00:34;;;;;;;22.20;14.63;;;;;;;;;;5059725;28;20456;-59
2021/01/05 10:03:01;;;;;;;24.70;14.93;;;;;;;;;;5043262;28;20474;-59
2021/01/05 10:05:30;;;;;;;1004.43;99.40;;;;;;;;;;5057640;28;20453;-59
2021/01/05 10:07:59;;;;;;;374.93;37.40;;;;;;;;;;5053586;28;20428;-61
2021/01/05 10:10:28;;;;;;;175.30;28.70;;;;;;;;;;5036156;28;20462;-60
2021/01/05 10:12:57;;;;;;;157.70;28.33;;;;;;;;;;5036299;28;20455;-60
2021/01/05 10:15:24;;;;;;;136.47;23.90;;;;;;;;;;5045126;28;20980;-59
2021/01/05 10:17:50;;;;;;;54.90;19.27;;;;;;;;;;5058153;28;20509;-59
2021/01/05 10:20:18;;;;;;;73.13;19.77;;;;;;;;;;5055331;28;20471;-60
2021/01/05 10:22:44;;;;;;;46.37;16.80;;;;;;;;;;5035829;28;20789;-59
2021/01/05 10:25:11;;;;;;;54.57;17.37;;;;;;;;;;5043477;28;21000;-59
2021/01/05 10:27:37;;;;;;;46.60;17.67;;;;;;;;;;5049569;28;20424;-60
2021/01/05 10:30:08;;;;;;;49.00;16.33;;;;;;;;;;5033828;28;20447;-59
2021/01/05 10:32:34;;;;;;;34.30;15.17;;;;;;;;;;5049575;28;20522;-59
2021/01/05 10:35:00;;;;;;;39.13;16.40;;;;;;;;;;5042416;28;20437;-59
2021/01/05 10:37:26;;;;;;;31.07;15.03;;;;;;;;;;5037790;28;20431;-60
2021/01/05 10:39:52;;;;;;;39.03;15.33;;;;;;;;;;5048394;28;20485;-60
2021/01/05 10:42:19;;;;;;;27.90;15.63;;;;;;;;;;5058562;28;20875;-60
2021/01/05 10:44:45;;;;;;;37.50;15.53;;;;;;;;;;5057874;28;20442;-60
2021/01/05 10:47:14;;;;;;;21.97;15.10;;;;;;;;;;5059953;28;20420;-59
2021/01/05 10:49:41;;;;;;;28.97;15.77;;;;;;;;;;5053820;28;20485;-60
2021/01/05 10:52:13;;;;;;;29.40;15.17;;;;;;;;;;5040767;28;20462;-60
2021/01/05 10:54:39;;;;;;;27.97;15.43;;;;;;;;;;5052935;28;20495;-59
2021/01/05 10:57:08;;;;;;;26.10;14.93;;;;;;;;;;5064487;28;20419;-59
2021/01/05 10:59:35;;;;;;;24.17;14.87;;;;;;;;;;5074125;28;20415;-59
2021/01/05 11:02:03;;;;;;;23.77;15.23;;;;;;;;;;5066709;28;20418;-61
2021/01/05 11:04:29;;;;;;;22.17;15.00;;;;;;;;;;5070209;28;20788;-59
2021/01/05 11:06:56;;;;;;;22.63;15.43;;;;;;;;;;5057788;28;20424;-59
2021/01/05 11:09:23;;;;;;;25.77;15.07;;;;;;;;;;5062465;28;20592;-62
2021/01/05 11:11:55;;;;;;;24.10;16.07;;;;;;;;;;5070343;28;21022;-61
2021/01/05 11:14:21;;;;;;;21.97;14.53;;;;;;;;;;5065748;28;20430;-60
2021/01/05 11:16:48;;;;;;;25.63;16.63;;;;;;;;;;5058442;28;20973;-62
2021/01/05 11:19:14;;;;;;;24.30;16.37;;;;;;;;;;5053915;28;20446;-59
2021/01/05 11:21:40;;;;;;;23.13;14.20;;;;;;;;;;5058603;28;20779;-59
2021/01/05 11:24:07;;;;;;;22.93;14.47;;;;;;;;;;5064903;28;20510;-60
2021/01/05 11:26:37;;;;;;;24.20;15.47;;;;;;;;;;5038551;28;21024;-61
2021/01/05 11:29:04;;;;;;;23.57;14.73;;;;;;;;;;5057240;28;20423;-60
2021/01/05 11:31:30;;;;;;;25.03;15.67;;;;;;;;;;5054279;28;20463;-60
2021/01/05 11:33:57;;;;;;;24.97;15.90;;;;;;;;;;5055758;28;20486;-60
2021/01/05 11:36:26;;;;;;;23.90;15.77;;;;;;;;;;5057489;28;20450;-61
2021/01/05 11:38:53;;;;;;;24.87;15.23;;;;;;;;;;5039460;28;20847;-61
2021/01/05 11:41:27;;;;;;;24.90;15.57;;;;;;;;;;5043675;28;20530;-60
2021/01/05 11:43:53;;;;;;;25.97;16.27;;;;;;;;;;5035403;28;20441;-60
2021/01/05 11:46:19;;;;;;;22.50;14.40;;;;;;;;;;5040199;28;20434;-61
2021/01/05 11:48:46;;;;;;;23.90;14.87;;;;;;;;;;5059909;28;20445;-61
2021/01/05 11:51:30;;;;;;;22.67;14.47;;;;;;;;;;5057791;28;21076;-59
2021/01/05 11:53:57;;;;;;;23.47;14.60;;;;;;;;;;5052900;28;20950;-60
2021/01/05 11:56:25;;;;;;;25.40;14.70;;;;;;;;;;5052244;28;20431;-60
2021/01/05 11:58:51;;;;;;;22.43;13.90;;;;;;;;;;5032822;28;20463;-60
2021/01/05 12:01:17;;;;;;;23.33;15.00;;;;;;;;;;5036190;28;20438;-62
2021/01/05 12:03:44;;;;;;;23.23;14.60;;;;;;;;;;5056674;28;21008;-60
2021/01/05 12:06:17;;;;;;;20.23;14.80;;;;;;;;;;5037524;28;20439;-59
2021/01/05 12:08:43;;;;;;;25.27;15.13;;;;;;;;;;5047507;28;20794;-64
2021/01/05 12:11:15;;;;;;;20.37;14.33;;;;;;;;;;5051488;28;20983;-62
2021/01/05 12:13:41;;;;;;;22.47;14.40;;;;;;;;;;5052156;28;20433;-60
2021/01/05 12:16:07;;;;;;;23.80;15.17;;;;;;;;;;5032539;28;20481;-60
2021/01/05 12:18:36;;;;;;;24.17;15.37;;;;;;;;;;5053648;28;20431;-61
2021/01/05 12:21:05;;;;;;;24.63;15.37;;;;;;;;;;5042388;28;20429;-60
2021/01/05 12:23:34;;;;;;;23.10;14.40;;;;;;;;;;5050887;28;20882;-60
2021/01/05 12:26:03;;;;;;;21.17;14.10;;;;;;;;;;5034167;28;20438;-60
2021/01/05 12:28:32;;;;;;;25.57;14.80;;;;;;;;;;5059093;28;20431;-60
2021/01/05 12:30:58;;;;;;;23.03;14.67;;;;;;;;;;5056079;28;20454;-60
2021/01/05 12:33:24;;;;;;;22.83;14.93;;;;;;;;;;5068294;28;20510;-61
2021/01/05 12:35:51;;;;;;;23.30;14.77;;;;;;;;;;5056782;28;20185;-59
2021/01/05 12:38:24;;;;;;;21.27;14.57;;;;;;;;;;5063631;28;20437;-60
2021/01/05 12:40:50;;;;;;;22.73;13.97;;;;;;;;;;5053848;28;20423;-60
2021/01/05 12:43:19;;;;;;;22.23;14.50;;;;;;;;;;5057645;28;20420;-60
2021/01/05 12:45:51;;;;;;;22.53;14.87;;;;;;;;;;5033252;28;20431;-60
2021/01/05 12:48:17;;;;;;;22.63;15.23;;;;;;;;;;5050357;28;20449;-60
2021/01/05 12:50:46;;;;;;;23.23;14.93;;;;;;;;;;5042398;28;20491;-60
2021/01/05 12:53:12;;;;;;;20.80;14.20;;;;;;;;;;5040557;28;20792;-60
2021/01/05 12:55:38;;;;;;;22.97;15.07;;;;;;;;;;5070005;28;20422;-59
2021/01/05 12:58:04;;;;;;;20.17;14.60;;;;;;;;;;5070098;28;20429;-61
2021/01/05 13:00:30;;;;;;;20.40;14.40;;;;;;;;;;5069409;28;20431;-60
2021/01/05 13:02:57;;;;;;;23.43;15.60;;;;;;;;;;5041883;28;20475;-59
2021/01/05 13:05:23;;;;;;;22.93;15.93;;;;;;;;;;5052710;28;20439;-60
2021/01/05 13:07:49;;;;;;;22.33;15.07;;;;;;;;;;5055898;28;20530;-60
2021/01/05 13:10:16;;;;;;;22.47;15.50;;;;;;;;;;5039628;28;20964;-60
2021/01/05 13:12:43;;;;;;;21.60;14.63;;;;;;;;;;5060343;28;20813;-62
2021/01/05 13:15:10;;;;;;;19.47;14.03;;;;;;;;;;5063343;28;20430;-60
2021/01/05 13:17:46;;;;;;;22.20;13.63;;;;;;;;;;5040430;28;20493;-59
2021/01/05 13:20:13;;;;;;;22.77;14.93;;;;;;;;;;5060562;28;20415;-60
2021/01/05 13:22:39;;;;;;;25.03;14.97;;;;;;;;;;5037990;28;20504;-60
2021/01/05 13:25:07;;;;;;;20.97;14.97;;;;;;;;;;5066122;28;20427;-60
2021/01/05 13:27:33;;;;;;;23.83;15.43;;;;;;;;;;5058941;28;20872;-63
2021/01/05 13:30:00;;;;;;;21.47;15.57;;;;;;;;;;5040228;28;20490;-60
2021/01/05 13:32:29;;;;;;;25.30;16.13;;;;;;;;;;5069865;28;20960;-60
2021/01/05 13:34:58;;;;;;;24.90;15.53;;;;;;;;;;5062919;28;20424;-60
2021/01/05 13:37:25;;;;;;;22.83;15.37;;;;;;;;;;5054408;28;20492;-61
2021/01/05 13:39:52;;;;;;;22.93;16.17;;;;;;;;;;5056729;28;20462;-59
2021/01/05 13:42:22;;;;;;;20.13;14.67;;;;;;;;;;5052059;28;20489;-60
2021/01/05 13:44:52;;;;;;;21.23;15.30;;;;;;;;;;5040115;28;20410;-60
2021/01/05 13:47:20;;;;;;;24.43;17.17;;;;;;;;;;5035607;28;20432;-61
2021/01/05 13:49:47;;;;;;;25.27;15.33;;;;;;;;;;5040273;28;21291;-62
2021/01/05 13:52:14;;;;;;;34.43;18.93;;;;;;;;;;5051573;28;20472;-62
2021/01/05 13:54:41;;;;;;;35.27;20.67;;;;;;;;;;5051528;28;20431;-60
2021/01/05 13:57:08;;;;;;;32.70;20.30;;;;;;;;;;5057736;28;20403;-60
2021/01/05 13:59:34;;;;;;;37.50;21.13;;;;;;;;;;5048243;28;20503;-60
2021/01/05 14:02:01;;;;;;;32.53;18.47;;;;;;;;;;5054862;28;20477;-59
2021/01/05 14:04:28;;;;;;;26.90;17.67;;;;;;;;;;5049409;28;21121;-60
2021/01/05 14:06:55;;;;;;;28.03;17.73;;;;;;;;;;5049906;28;20497;-59
2021/01/05 14:09:21;;;;;;;28.83;17.27;;;;;;;;;;5052607;28;20445;-59
2021/01/05 14:11:49;;;;;;;26.87;17.87;;;;;;;;;;5049540;28;20589;-62
2021/01/05 14:14:15;;;;;;;29.80;16.77;;;;;;;;;;5031820;28;20435;-59
2021/01/05 14:16:44;;;;;;;25.37;15.77;;;;;;;;;;5033812;28;21286;-59
2021/01/05 14:19:10;;;;;;;26.90;15.80;;;;;;;;;;5053212;28;20432;-59
2021/01/05 14:21:38;;;;;;;25.03;15.60;;;;;;;;;;5033777;28;20431;-60
2021/01/05 14:24:07;;;;;;;20.23;13.83;;;;;;;;;;5044515;28;20812;-59
2021/01/05 14:26:34;;;;;;;26.30;15.13;;;;;;;;;;5037658;28;20514;-59
2021/01/05 14:29:03;;;;;;;26.60;14.23;;;;;;;;;;5032063;28;21001;-61